Terminal Aerodrome Forecast
Issued by NWS Brownsville, TX

Home | Current Version | Previous Version | Text Only | Print | Product List | Glossary On
Versions: 1 2 3 4 5 6 7 8 9 10 11 12 13 14 15 16 17 18 19 20 21 22 23 24 25 26 27
098
FTUS44 KBRO 232320
TAFMFE
TAF
KMFE 232320Z 2400/2424 16017G23KT P6SM SKC
     FM240300 13010KT P6SM SCT030
      TEMPO 2410/2412 SCT020 BKN030
     FM241500 15015KT P6SM FEW040=

USA.gov is the U.S. government's official web portal to all federal, state and local government web resources and services.